Currently 99°F in Lake Elsinore, California, USA
99°F
102°F / 69°F
4 mph SW
0.00"
Friday, June 18, 2021 4:52 PM PDT

Lake Elsinore, California Weather Summary
Last 36 Hours

Temperature Winds Hourly Humidity Dewpoint
Time Report Norm Report Norm Max Gusts Precip. Rpt. Norm Rpt. Norm Pressure
1Fri 04:52 PM  98.8°F  91°F  4 mph SW  5 mph  10 mph  0.00"  18%  30%  47°F  55°F  N/A
Fri 04:00 PM  101.1°F  93°F  4 mph NE  5 mph  12 mph  0.00"  17%  29%  46°F  55°F  N/A
Fri 03:00 PM  101.3°F  93°F  5 mph NW  3 mph  12 mph  0.00"  16%  28%  45°F  54°F  N/A
2Fri 02:52 PM  101.5°F  93°F  5 mph W  4 mph  12 mph  ----  16%  28%  46°F  54°F  N/A
Fri 02:00 PM  99.2°F  92°F  7 mph W  2 mph  11 mph  0.00"  18%  29%  47°F  54°F  N/A
Fri 01:00 PM  96.2°F  89°F  calm  2 mph  8 mph  0.00"  23%  32%  51°F  55°F  N/A
Fri 12:00 PM  89.7°F  86°F  4 mph E  2 mph  6 mph  0.00"  32%  37%  55°F  55°F  N/A
Fri 11:00 AM  83.6°F  81°F  1 mph E  2 mph  8 mph  0.00"  39%  44%  55°F  57°F  N/A
Fri 10:00 AM  85.1°F  77°F  2 mph S  2 mph  6 mph  0.00"  37%  53%  55°F  58°F  N/A
Fri 09:00 AM  79.4°F  72°F  3 mph E  1 mph  8 mph  0.00"  45%  64%  56°F  58°F  N/A
Fri 08:00 AM  73.2°F  66°F  1 mph S  1 mph  7 mph  0.00"  56%  76%  56°F  58°F  N/A
3Fri 07:15 AM  68.5°F  62°F  2 mph SW  1 mph  7 mph  ----  66%  83%  56°F  57°F  N/A
Fri 07:00 AM  69.3°F  61°F  2 mph SE  1 mph  10 mph  0.00"  66%  84%  57°F  56°F  N/A
Fri 06:00 AM  74.2°F  60°F  2 mph NE  calm  17 mph  0.00"  55%  83%  57°F  54°F  N/A
Fri 05:00 AM  74.2°F  60°F  1 mph W  calm  14 mph  0.00"  57%  82%  58°F  54°F  N/A
Fri 04:00 AM  75.4°F  61°F  calm  1 mph  15 mph  0.00"  52%  81%  56°F  55°F  N/A
Fri 03:00 AM  75.0°F  62°F  5 mph NE  calm  11 mph  0.00"  52%  79%  55°F  55°F  N/A
Fri 02:00 AM  74.3°F  63°F  calm  calm  6 mph  0.00"  52%  78%  55°F  56°F  N/A
Fri 01:00 AM  76.0°F  64°F  calm  1 mph  7 mph  0.00"  48%  76%  55°F  56°F  N/A
Fri 12:00 AM  77.9°F  66°F  1 mph NW  1 mph  5 mph  0.00"  45%  74%  54°F  57°F  N/A
Thu 11:00 PM  79.2°F  68°F  1 mph W  1 mph  5 mph  0.00"  47%  72%  56°F  58°F  N/A
Thu 10:00 PM  80.4°F  70°F  2 mph E  2 mph  6 mph  0.00"  45%  67%  56°F  58°F  N/A
Thu 09:00 PM  82.2°F  73°F  1 mph E  2 mph  7 mph  0.00"  40%  60%  55°F  58°F  N/A
Thu 08:00 PM  86.3°F  77°F  2 mph SE  3 mph  7 mph  0.00"  34%  51%  54°F  57°F  N/A
Thu 07:00 PM  90.8°F  83°F  2 mph E  3 mph  13 mph  0.00"  28%  41%  52°F  56°F  N/A
Thu 06:00 PM  97.1°F  88°F  4 mph E  5 mph  10 mph  0.00"  22%  35%  51°F  55°F  N/A
Thu 05:00 PM  103.2°F  90°F  5 mph W  5 mph  15 mph  0.00"  13%  31%  41°F  55°F  N/A
Thu 04:00 PM  105.3°F  92°F  4 mph W  5 mph  12 mph  0.00"  12%  30%  40°F  55°F  N/A
Thu 03:00 PM  107.7°F  92°F  3 mph SW  4 mph  12 mph  0.00"  9%  29%  35°F  54°F  N/A
Thu 02:00 PM  107.0°F  91°F  1 mph SE  2 mph  10 mph  0.00"  9%  30%  35°F  54°F  N/A
Thu 01:00 PM  103.3°F  88°F  3 mph S  2 mph  8 mph  0.00"  11%  33%  38°F  55°F  N/A
Thu 12:00 PM  100.4°F  85°F  calm  2 mph  7 mph  0.00"  14%  38%  40°F  56°F  N/A
Thu 11:00 AM  95.8°F  81°F  5 mph E  2 mph  7 mph  0.00"  17%  45%  42°F  57°F  N/A
Thu 10:00 AM  91.7°F  76°F  2 mph SE  2 mph  6 mph  0.00"  21%  53%  45°F  57°F  N/A
Thu 09:00 AM  88.9°F  71°F  1 mph SE  1 mph  4 mph  0.00"  28%  64%  50°F  58°F  N/A
Thu 08:00 AM  78.9°F  66°F  calm  1 mph  4 mph  0.00"  42%  76%  53°F  58°F  N/A
Thu 07:00 AM  70.4°F  61°F  calm  1 mph  3 mph  0.00"  55%  84%  53°F  56°F  N/A
Thu 06:00 AM  68.8°F  59°F  calm  calm  none  0.00"  56%  83%  52°F  54°F  N/A
Thu 05:00 AM  69.3°F  60°F  calm  calm  2 mph  0.00"  55%  82%  52°F  54°F  N/A

  1. Current weather data. No green row appears if the current weather data is also the high or low for the current day.
  2. High temperature for the current day.
  3. Low temperature for the current day.

The Lake Elsinore, California weather pages are a service of WeatherCurrents. Lake Elsinore is located south of Corona and north of the Temecula Valley, in southwestern Riverside County, California.
Copyright ©2021  WeatherCurrents. All rights reserved. - Submit questions and comments - Privacy Policy

This page automatically refreshes every 10 minutes.